sensor_id;sensor_type;location;lat;lon;timestamp;P1;durP1;ratioP1;P2;durP2;ratioP2
1839;SDS011;920;48.944;9.148;2022-12-29T00:00:09;2.70;;;1.50;;
1839;SDS011;920;48.944;9.148;2022-12-29T00:02:37;2.47;;;1.47;;
1839;SDS011;920;48.944;9.148;2022-12-29T00:05:07;2.43;;;1.67;;
1839;SDS011;920;48.944;9.148;2022-12-29T00:07:34;2.60;;;1.60;;
1839;SDS011;920;48.944;9.148;2022-12-29T00:10:02;2.20;;;1.50;;
1839;SDS011;920;48.944;9.148;2022-12-29T00:12:32;3.13;;;1.27;;
1839;SDS011;920;48.944;9.148;2022-12-29T00:15:13;3.17;;;1.50;;
1839;SDS011;920;48.944;9.148;2022-12-29T00:18:05;2.30;;;1.30;;
1839;SDS011;920;48.944;9.148;2022-12-29T00:20:34;1.73;;;1.20;;
1839;SDS011;920;48.944;9.148;2022-12-29T00:23:18;2.30;;;1.73;;
1839;SDS011;920;48.944;9.148;2022-12-29T00:26:18;2.17;;;1.63;;
1839;SDS011;920;48.944;9.148;2022-12-29T00:29:02;2.43;;;1.63;;
1839;SDS011;920;48.944;9.148;2022-12-29T00:31:46;3.37;;;1.93;;
1839;SDS011;920;48.944;9.148;2022-12-29T00:34:31;2.67;;;1.70;;
1839;SDS011;920;48.944;9.148;2022-12-29T00:37:17;3.20;;;1.50;;
1839;SDS011;920;48.944;9.148;2022-12-29T00:40:09;3.10;;;1.30;;
1839;SDS011;920;48.944;9.148;2022-12-29T00:42:53;5.00;;;1.60;;
1839;SDS011;920;48.944;9.148;2022-12-29T00:45:39;1.90;;;1.40;;
1839;SDS011;920;48.944;9.148;2022-12-29T00:48:08;2.43;;;1.50;;
1839;SDS011;920;48.944;9.148;2022-12-29T00:50:38;2.83;;;1.90;;
1839;SDS011;920;48.944;9.148;2022-12-29T00:53:05;4.90;;;1.80;;
1839;SDS011;920;48.944;9.148;2022-12-29T00:55:35;2.50;;;1.50;;
1839;SDS011;920;48.944;9.148;2022-12-29T00:58:03;2.60;;;1.63;;
1839;SDS011;920;48.944;9.148;2022-12-29T01:00:30;2.87;;;1.50;;
1839;SDS011;920;48.944;9.148;2022-12-29T01:02:57;2.07;;;1.40;;
1839;SDS011;920;48.944;9.148;2022-12-29T01:05:24;2.17;;;1.30;;
1839;SDS011;920;48.944;9.148;2022-12-29T01:07:55;2.63;;;1.50;;
1839;SDS011;920;48.944;9.148;2022-12-29T01:10:27;1.97;;;1.47;;
1839;SDS011;920;48.944;9.148;2022-12-29T01:12:56;2.40;;;1.50;;
1839;SDS011;920;48.944;9.148;2022-12-29T01:15:28;2.57;;;1.70;;
1839;SDS011;920;48.944;9.148;2022-12-29T01:17:57;1.97;;;1.30;;
1839;SDS011;920;48.944;9.148;2022-12-29T01:20:25;2.33;;;1.43;;
1839;SDS011;920;48.944;9.148;2022-12-29T01:22:54;2.47;;;1.50;;
1839;SDS011;920;48.944;9.148;2022-12-29T01:25:25;2.40;;;1.60;;
1839;SDS011;920;48.944;9.148;2022-12-29T01:27:53;2.00;;;1.33;;
1839;SDS011;920;48.944;9.148;2022-12-29T01:30:30;2.10;;;1.37;;
1839;SDS011;920;48.944;9.148;2022-12-29T01:33:01;2.50;;;1.77;;
1839;SDS011;920;48.944;9.148;2022-12-29T01:35:28;5.93;;;1.60;;
1839;SDS011;920;48.944;9.148;2022-12-29T01:37:58;7.27;;;1.47;;
1839;SDS011;920;48.944;9.148;2022-12-29T01:40:26;3.87;;;1.50;;
1839;SDS011;920;48.944;9.148;2022-12-29T01:42:55;2.87;;;1.30;;
1839;SDS011;920;48.944;9.148;2022-12-29T01:45:22;2.70;;;1.47;;
1839;SDS011;920;48.944;9.148;2022-12-29T01:47:49;2.20;;;1.30;;
1839;SDS011;920;48.944;9.148;2022-12-29T01:50:20;3.57;;;1.73;;
1839;SDS011;920;48.944;9.148;2022-12-29T01:52:54;2.43;;;1.50;;
1839;SDS011;920;48.944;9.148;2022-12-29T01:55:24;3.20;;;1.40;;
1839;SDS011;920;48.944;9.148;2022-12-29T01:57:52;1.97;;;1.40;;
1839;SDS011;920;48.944;9.148;2022-12-29T02:00:20;3.57;;;1.57;;
1839;SDS011;920;48.944;9.148;2022-12-29T02:02:55;2.20;;;1.30;;
1839;SDS011;920;48.944;9.148;2022-12-29T02:05:24;2.63;;;1.30;;
1839;SDS011;920;48.944;9.148;2022-12-29T02:07:53;1.90;;;1.30;;
1839;SDS011;920;48.944;9.148;2022-12-29T02:10:21;3.83;;;1.60;;
1839;SDS011;920;48.944;9.148;2022-12-29T02:12:51;2.40;;;1.60;;
1839;SDS011;920;48.944;9.148;2022-12-29T02:15:21;2.17;;;1.20;;
1839;SDS011;920;48.944;9.148;2022-12-29T02:17:55;2.23;;;1.30;;
1839;SDS011;920;48.944;9.148;2022-12-29T02:20:41;2.13;;;1.30;;
1839;SDS011;920;48.944;9.148;2022-12-29T02:24:01;4.70;;;1.50;;
1839;SDS011;920;48.944;9.148;2022-12-29T02:27:04;2.47;;;1.40;;
1839;SDS011;920;48.944;9.148;2022-12-29T02:29:48;1.97;;;1.30;;
1839;SDS011;920;48.944;9.148;2022-12-29T02:32:36;2.27;;;1.50;;
1839;SDS011;920;48.944;9.148;2022-12-29T02:35:07;2.90;;;1.67;;
1839;SDS011;920;48.944;9.148;2022-12-29T02:37:41;2.83;;;1.50;;
1839;SDS011;920;48.944;9.148;2022-12-29T02:40:27;2.30;;;1.33;;
1839;SDS011;920;48.944;9.148;2022-12-29T02:43:02;1.90;;;1.10;;
1839;SDS011;920;48.944;9.148;2022-12-29T02:45:38;2.00;;;1.17;;
1839;SDS011;920;48.944;9.148;2022-12-29T02:48:15;2.43;;;1.20;;
1839;SDS011;920;48.944;9.148;2022-12-29T02:50:48;1.80;;;1.20;;
1839;SDS011;920;48.944;9.148;2022-12-29T02:53:18;2.50;;;1.20;;
1839;SDS011;920;48.944;9.148;2022-12-29T02:56:06;2.00;;;1.30;;
1839;SDS011;920;48.944;9.148;2022-12-29T02:58:31;3.07;;;1.13;;
1839;SDS011;920;48.944;9.148;2022-12-29T03:01:04;2.17;;;1.30;;
1839;SDS011;920;48.944;9.148;2022-12-29T03:03:46;3.03;;;1.30;;
1839;SDS011;920;48.944;9.148;2022-12-29T03:06:30;1.90;;;1.40;;
1839;SDS011;920;48.944;9.148;2022-12-29T03:09:02;2.03;;;1.40;;
1839;SDS011;920;48.944;9.148;2022-12-29T03:11:38;2.00;;;1.20;;
1839;SDS011;920;48.944;9.148;2022-12-29T03:14:27;2.50;;;1.37;;
1839;SDS011;920;48.944;9.148;2022-12-29T03:17:15;1.90;;;1.20;;
1839;SDS011;920;48.944;9.148;2022-12-29T03:19:51;2.83;;;1.27;;
1839;SDS011;920;48.944;9.148;2022-12-29T03:22:25;2.10;;;1.47;;
1839;SDS011;920;48.944;9.148;2022-12-29T03:25:01;1.63;;;1.20;;
1839;SDS011;920;48.944;9.148;2022-12-29T03:27:32;2.17;;;1.20;;
1839;SDS011;920;48.944;9.148;2022-12-29T03:30:02;2.93;;;1.30;;
1839;SDS011;920;48.944;9.148;2022-12-29T03:32:32;2.00;;;1.13;;
1839;SDS011;920;48.944;9.148;2022-12-29T03:35:06;1.90;;;1.13;;
1839;SDS011;920;48.944;9.148;2022-12-29T03:37:35;2.43;;;1.33;;
1839;SDS011;920;48.944;9.148;2022-12-29T03:40:10;1.80;;;0.97;;
1839;SDS011;920;48.944;9.148;2022-12-29T03:42:42;2.10;;;1.30;;
1839;SDS011;920;48.944;9.148;2022-12-29T03:45:18;2.17;;;1.17;;
1839;SDS011;920;48.944;9.148;2022-12-29T03:47:55;2.30;;;1.10;;
1839;SDS011;920;48.944;9.148;2022-12-29T03:50:23;2.20;;;0.90;;
1839;SDS011;920;48.944;9.148;2022-12-29T03:52:52;1.77;;;1.07;;
1839;SDS011;920;48.944;9.148;2022-12-29T03:55:23;2.60;;;1.10;;
1839;SDS011;920;48.944;9.148;2022-12-29T03:57:52;2.07;;;1.03;;
1839;SDS011;920;48.944;9.148;2022-12-29T04:00:19;1.47;;;0.87;;
1839;SDS011;920;48.944;9.148;2022-12-29T04:02:45;3.20;;;1.10;;
1839;SDS011;920;48.944;9.148;2022-12-29T04:05:15;1.87;;;1.10;;
1839;SDS011;920;48.944;9.148;2022-12-29T04:07:43;1.90;;;1.20;;
1839;SDS011;920;48.944;9.148;2022-12-29T04:10:12;1.83;;;1.27;;
1839;SDS011;920;48.944;9.148;2022-12-29T04:12:39;1.70;;;1.00;;
1839;SDS011;920;48.944;9.148;2022-12-29T04:15:10;2.07;;;0.97;;
1839;SDS011;920;48.944;9.148;2022-12-29T04:17:39;2.10;;;1.10;;
1839;SDS011;920;48.944;9.148;2022-12-29T04:20:06;4.27;;;1.10;;
1839;SDS011;920;48.944;9.148;2022-12-29T04:22:58;2.37;;;1.03;;
1839;SDS011;920;48.944;9.148;2022-12-29T04:25:25;2.10;;;0.97;;
1839;SDS011;920;48.944;9.148;2022-12-29T04:27:55;3.17;;;1.50;;
1839;SDS011;920;48.944;9.148;2022-12-29T04:30:22;2.77;;;1.30;;
1839;SDS011;920;48.944;9.148;2022-12-29T04:32:52;2.60;;;1.33;;
1839;SDS011;920;48.944;9.148;2022-12-29T04:35:19;1.80;;;1.23;;
1839;SDS011;920;48.944;9.148;2022-12-29T04:37:45;2.53;;;1.20;;
1839;SDS011;920;48.944;9.148;2022-12-29T04:40:14;2.20;;;0.97;;
1839;SDS011;920;48.944;9.148;2022-12-29T04:42:40;2.10;;;1.03;;
1839;SDS011;920;48.944;9.148;2022-12-29T04:45:10;4.67;;;1.37;;
1839;SDS011;920;48.944;9.148;2022-12-29T04:47:40;3.13;;;1.30;;
1839;SDS011;920;48.944;9.148;2022-12-29T04:50:07;2.33;;;1.23;;
1839;SDS011;920;48.944;9.148;2022-12-29T04:52:34;2.20;;;1.27;;
1839;SDS011;920;48.944;9.148;2022-12-29T04:55:02;2.20;;;1.07;;
1839;SDS011;920;48.944;9.148;2022-12-29T04:57:31;2.90;;;1.37;;
1839;SDS011;920;48.944;9.148;2022-12-29T04:59:58;1.87;;;1.10;;
1839;SDS011;920;48.944;9.148;2022-12-29T05:02:28;2.53;;;1.30;;
1839;SDS011;920;48.944;9.148;2022-12-29T05:05:03;2.73;;;1.23;;
1839;SDS011;920;48.944;9.148;2022-12-29T05:07:35;1.80;;;1.20;;
1839;SDS011;920;48.944;9.148;2022-12-29T05:10:02;1.63;;;1.03;;
1839;SDS011;920;48.944;9.148;2022-12-29T05:12:37;2.17;;;1.10;;
1839;SDS011;920;48.944;9.148;2022-12-29T05:15:13;2.20;;;1.10;;
1839;SDS011;920;48.944;9.148;2022-12-29T05:17:40;2.87;;;1.40;;
1839;SDS011;920;48.944;9.148;2022-12-29T05:20:07;2.30;;;1.23;;
1839;SDS011;920;48.944;9.148;2022-12-29T05:22:37;1.90;;;1.10;;
1839;SDS011;920;48.944;9.148;2022-12-29T05:25:04;2.83;;;1.13;;
1839;SDS011;920;48.944;9.148;2022-12-29T05:27:36;2.97;;;1.43;;
1839;SDS011;920;48.944;9.148;2022-12-29T05:30:03;3.17;;;1.30;;
1839;SDS011;920;48.944;9.148;2022-12-29T05:32:33;1.70;;;1.03;;
1839;SDS011;920;48.944;9.148;2022-12-29T05:35:01;2.33;;;1.27;;
1839;SDS011;920;48.944;9.148;2022-12-29T05:37:27;2.70;;;1.20;;
1839;SDS011;920;48.944;9.148;2022-12-29T05:39:54;2.60;;;1.27;;
1839;SDS011;920;48.944;9.148;2022-12-29T05:42:24;4.50;;;1.60;;
1839;SDS011;920;48.944;9.148;2022-12-29T05:44:52;2.40;;;1.40;;
1839;SDS011;920;48.944;9.148;2022-12-29T05:47:19;3.33;;;1.50;;
1839;SDS011;920;48.944;9.148;2022-12-29T05:49:45;2.00;;;1.37;;
1839;SDS011;920;48.944;9.148;2022-12-29T05:52:21;1.70;;;1.30;;
1839;SDS011;920;48.944;9.148;2022-12-29T05:54:48;3.70;;;1.50;;
1839;SDS011;920;48.944;9.148;2022-12-29T05:57:15;2.70;;;1.50;;
1839;SDS011;920;48.944;9.148;2022-12-29T05:59:42;1.90;;;1.50;;
1839;SDS011;920;48.944;9.148;2022-12-29T06:02:12;3.17;;;1.67;;
1839;SDS011;920;48.944;9.148;2022-12-29T06:04:39;3.60;;;1.63;;
1839;SDS011;920;48.944;9.148;2022-12-29T06:07:09;2.10;;;1.30;;
1839;SDS011;920;48.944;9.148;2022-12-29T06:09:35;2.13;;;1.50;;
1839;SDS011;920;48.944;9.148;2022-12-29T06:12:07;2.40;;;1.50;;
1839;SDS011;920;48.944;9.148;2022-12-29T06:14:34;3.30;;;1.70;;
1839;SDS011;920;48.944;9.148;2022-12-29T06:17:05;2.30;;;1.57;;
1839;SDS011;920;48.944;9.148;2022-12-29T06:19:36;3.40;;;1.70;;
1839;SDS011;920;48.944;9.148;2022-12-29T06:22:03;2.10;;;1.50;;
1839;SDS011;920;48.944;9.148;2022-12-29T06:24:29;2.13;;;1.27;;
1839;SDS011;920;48.944;9.148;2022-12-29T06:26:59;3.00;;;1.63;;
1839;SDS011;920;48.944;9.148;2022-12-29T06:29:30;3.07;;;1.60;;
1839;SDS011;920;48.944;9.148;2022-12-29T06:31:57;2.93;;;1.60;;
1839;SDS011;920;48.944;9.148;2022-12-29T06:34:24;2.43;;;1.43;;
1839;SDS011;920;48.944;9.148;2022-12-29T06:36:55;3.40;;;1.70;;
1839;SDS011;920;48.944;9.148;2022-12-29T06:39:21;2.93;;;1.53;;
1839;SDS011;920;48.944;9.148;2022-12-29T06:41:53;2.67;;;1.90;;
1839;SDS011;920;48.944;9.148;2022-12-29T06:44:20;2.60;;;1.80;;
1839;SDS011;920;48.944;9.148;2022-12-29T06:46:47;3.10;;;1.70;;
1839;SDS011;920;48.944;9.148;2022-12-29T06:49:14;3.17;;;1.70;;
1839;SDS011;920;48.944;9.148;2022-12-29T06:51:42;2.10;;;1.23;;
1839;SDS011;920;48.944;9.148;2022-12-29T06:54:14;2.60;;;1.40;;
1839;SDS011;920;48.944;9.148;2022-12-29T06:56:41;2.00;;;1.43;;
1839;SDS011;920;48.944;9.148;2022-12-29T06:59:08;2.50;;;1.43;;
1839;SDS011;920;48.944;9.148;2022-12-29T07:01:35;2.70;;;1.43;;
1839;SDS011;920;48.944;9.148;2022-12-29T07:04:06;2.93;;;1.40;;
1839;SDS011;920;48.944;9.148;2022-12-29T07:06:33;2.67;;;1.40;;
1839;SDS011;920;48.944;9.148;2022-12-29T07:09:02;3.17;;;1.83;;
1839;SDS011;920;48.944;9.148;2022-12-29T07:11:33;2.40;;;1.60;;
1839;SDS011;920;48.944;9.148;2022-12-29T07:14:00;3.07;;;1.50;;
1839;SDS011;920;48.944;9.148;2022-12-29T07:16:29;2.37;;;1.50;;
1839;SDS011;920;48.944;9.148;2022-12-29T07:18:58;2.30;;;1.57;;
1839;SDS011;920;48.944;9.148;2022-12-29T07:21:25;2.30;;;1.73;;
1839;SDS011;920;48.944;9.148;2022-12-29T07:23:53;2.00;;;1.60;;
1839;SDS011;920;48.944;9.148;2022-12-29T07:26:22;3.07;;;1.57;;
1839;SDS011;920;48.944;9.148;2022-12-29T07:28:53;3.00;;;1.80;;
1839;SDS011;920;48.944;9.148;2022-12-29T07:31:22;2.00;;;1.47;;
1839;SDS011;920;48.944;9.148;2022-12-29T07:33:49;2.77;;;1.63;;
1839;SDS011;920;48.944;9.148;2022-12-29T07:36:24;2.53;;;1.50;;
1839;SDS011;920;48.944;9.148;2022-12-29T07:39:00;2.53;;;1.60;;
1839;SDS011;920;48.944;9.148;2022-12-29T07:41:26;2.23;;;1.60;;
1839;SDS011;920;48.944;9.148;2022-12-29T07:43:54;3.83;;;2.63;;
1839;SDS011;920;48.944;9.148;2022-12-29T07:46:21;2.70;;;1.63;;
1839;SDS011;920;48.944;9.148;2022-12-29T07:48:48;2.30;;;1.67;;
1839;SDS011;920;48.944;9.148;2022-12-29T07:51:16;2.80;;;1.57;;
1839;SDS011;920;48.944;9.148;2022-12-29T07:53:51;2.20;;;1.50;;
1839;SDS011;920;48.944;9.148;2022-12-29T07:56:17;3.13;;;1.60;;
1839;SDS011;920;48.944;9.148;2022-12-29T07:58:44;3.40;;;1.70;;
1839;SDS011;920;48.944;9.148;2022-12-29T08:01:18;2.60;;;1.63;;
1839;SDS011;920;48.944;9.148;2022-12-29T08:03:48;2.90;;;1.50;;
1839;SDS011;920;48.944;9.148;2022-12-29T08:06:16;2.27;;;1.57;;
1839;SDS011;920;48.944;9.148;2022-12-29T08:08:47;3.00;;;1.67;;
1839;SDS011;920;48.944;9.148;2022-12-29T08:11:14;3.40;;;1.50;;
1839;SDS011;920;48.944;9.148;2022-12-29T08:13:43;2.47;;;1.50;;
1839;SDS011;920;48.944;9.148;2022-12-29T08:16:12;2.70;;;1.30;;
1839;SDS011;920;48.944;9.148;2022-12-29T08:18:42;2.40;;;1.50;;
1839;SDS011;920;48.944;9.148;2022-12-29T08:21:09;2.83;;;1.53;;
1839;SDS011;920;48.944;9.148;2022-12-29T08:23:36;3.63;;;1.70;;
1839;SDS011;920;48.944;9.148;2022-12-29T08:26:04;2.47;;;1.70;;
1839;SDS011;920;48.944;9.148;2022-12-29T08:28:31;4.27;;;2.60;;
1839;SDS011;920;48.944;9.148;2022-12-29T08:30:59;6.30;;;3.40;;
1839;SDS011;920;48.944;9.148;2022-12-29T08:33:27;3.90;;;2.60;;
1839;SDS011;920;48.944;9.148;2022-12-29T08:35:59;4.00;;;2.53;;
1839;SDS011;920;48.944;9.148;2022-12-29T08:38:26;4.60;;;2.60;;
1839;SDS011;920;48.944;9.148;2022-12-29T08:40:55;3.40;;;1.97;;
1839;SDS011;920;48.944;9.148;2022-12-29T08:43:27;2.67;;;1.70;;
1839;SDS011;920;48.944;9.148;2022-12-29T08:45:54;4.23;;;2.40;;
1839;SDS011;920;48.944;9.148;2022-12-29T08:48:21;4.10;;;2.77;;
1839;SDS011;920;48.944;9.148;2022-12-29T08:50:49;3.90;;;2.93;;
1839;SDS011;920;48.944;9.148;2022-12-29T08:53:17;3.13;;;1.87;;
1839;SDS011;920;48.944;9.148;2022-12-29T08:55:46;3.10;;;2.37;;
1839;SDS011;920;48.944;9.148;2022-12-29T08:58:13;5.27;;;2.80;;
1839;SDS011;920;48.944;9.148;2022-12-29T09:00:43;3.27;;;2.23;;
1839;SDS011;920;48.944;9.148;2022-12-29T09:03:09;3.00;;;2.30;;
1839;SDS011;920;48.944;9.148;2022-12-29T09:05:36;3.10;;;2.40;;
1839;SDS011;920;48.944;9.148;2022-12-29T09:08:03;3.40;;;2.17;;
1839;SDS011;920;48.944;9.148;2022-12-29T09:10:31;3.07;;;1.93;;
1839;SDS011;920;48.944;9.148;2022-12-29T09:12:58;3.90;;;1.63;;
1839;SDS011;920;48.944;9.148;2022-12-29T09:15:25;2.30;;;1.67;;
1839;SDS011;920;48.944;9.148;2022-12-29T09:17:51;2.60;;;1.50;;
1839;SDS011;920;48.944;9.148;2022-12-29T09:20:18;4.50;;;2.10;;
1839;SDS011;920;48.944;9.148;2022-12-29T09:22:45;3.40;;;1.53;;
1839;SDS011;920;48.944;9.148;2022-12-29T09:25:12;5.00;;;1.47;;
1839;SDS011;920;48.944;9.148;2022-12-29T09:27:40;2.83;;;1.40;;
1839;SDS011;920;48.944;9.148;2022-12-29T09:30:08;2.67;;;1.67;;
1839;SDS011;920;48.944;9.148;2022-12-29T09:32:39;2.20;;;1.57;;
1839;SDS011;920;48.944;9.148;2022-12-29T09:35:06;2.40;;;1.30;;
1839;SDS011;920;48.944;9.148;2022-12-29T09:37:36;2.00;;;1.20;;
1839;SDS011;920;48.944;9.148;2022-12-29T09:40:05;3.60;;;1.50;;
1839;SDS011;920;48.944;9.148;2022-12-29T09:42:35;2.90;;;1.33;;
1839;SDS011;920;48.944;9.148;2022-12-29T09:45:10;2.30;;;1.50;;
1839;SDS011;920;48.944;9.148;2022-12-29T09:47:43;2.33;;;1.60;;
1839;SDS011;920;48.944;9.148;2022-12-29T09:50:12;2.70;;;1.70;;
1839;SDS011;920;48.944;9.148;2022-12-29T09:52:44;2.30;;;1.40;;
1839;SDS011;920;48.944;9.148;2022-12-29T09:55:16;2.43;;;1.60;;
1839;SDS011;920;48.944;9.148;2022-12-29T09:57:49;2.63;;;1.63;;
1839;SDS011;920;48.944;9.148;2022-12-29T10:00:32;2.77;;;1.27;;
1839;SDS011;920;48.944;9.148;2022-12-29T10:03:04;4.17;;;2.00;;
1839;SDS011;920;48.944;9.148;2022-12-29T10:05:41;1.87;;;1.40;;
1839;SDS011;920;48.944;9.148;2022-12-29T10:08:19;3.60;;;1.50;;
1839;SDS011;920;48.944;9.148;2022-12-29T10:10:59;2.40;;;1.20;;
1839;SDS011;920;48.944;9.148;2022-12-29T10:13:35;2.37;;;1.13;;
1839;SDS011;920;48.944;9.148;2022-12-29T10:16:09;2.63;;;1.40;;
1839;SDS011;920;48.944;9.148;2022-12-29T10:18:53;2.80;;;1.40;;
1839;SDS011;920;48.944;9.148;2022-12-29T10:21:33;2.40;;;1.10;;
1839;SDS011;920;48.944;9.148;2022-12-29T10:24:09;4.53;;;1.37;;
1839;SDS011;920;48.944;9.148;2022-12-29T10:26:38;2.83;;;1.30;;
1839;SDS011;920;48.944;9.148;2022-12-29T10:29:12;2.40;;;1.40;;
1839;SDS011;920;48.944;9.148;2022-12-29T10:31:44;1.83;;;1.20;;
1839;SDS011;920;48.944;9.148;2022-12-29T10:34:20;1.70;;;1.20;;
1839;SDS011;920;48.944;9.148;2022-12-29T10:36:53;2.37;;;1.33;;
1839;SDS011;920;48.944;9.148;2022-12-29T10:39:29;2.40;;;1.20;;
1839;SDS011;920;48.944;9.148;2022-12-29T10:42:01;2.40;;;1.40;;
1839;SDS011;920;48.944;9.148;2022-12-29T10:44:35;2.03;;;1.40;;
1839;SDS011;920;48.944;9.148;2022-12-29T10:47:04;2.90;;;1.70;;
1839;SDS011;920;48.944;9.148;2022-12-29T10:49:39;3.27;;;2.00;;
1839;SDS011;920;48.944;9.148;2022-12-29T10:52:09;3.40;;;1.70;;
1839;SDS011;920;48.944;9.148;2022-12-29T10:54:42;4.07;;;1.53;;
1839;SDS011;920;48.944;9.148;2022-12-29T10:57:16;3.93;;;2.00;;
1839;SDS011;920;48.944;9.148;2022-12-29T10:59:54;3.20;;;2.00;;
1839;SDS011;920;48.944;9.148;2022-12-29T11:05:17;7.23;;;5.00;;
1839;SDS011;920;48.944;9.148;2022-12-29T11:07:50;7.30;;;6.00;;
1839;SDS011;920;48.944;9.148;2022-12-29T11:10:29;5.80;;;5.20;;
1839;SDS011;920;48.944;9.148;2022-12-29T11:13:11;5.07;;;4.57;;
1839;SDS011;920;48.944;9.148;2022-12-29T11:15:40;3.73;;;3.33;;
1839;SDS011;920;48.944;9.148;2022-12-29T11:18:19;3.87;;;2.83;;
1839;SDS011;920;48.944;9.148;2022-12-29T11:20:48;4.23;;;3.00;;
1839;SDS011;920;48.944;9.148;2022-12-29T11:23:21;7.67;;;4.10;;
1839;SDS011;920;48.944;9.148;2022-12-29T11:26:11;2.73;;;1.90;;
1839;SDS011;920;48.944;9.148;2022-12-29T11:28:41;2.40;;;1.50;;
1839;SDS011;920;48.944;9.148;2022-12-29T11:31:08;2.93;;;1.50;;
1839;SDS011;920;48.944;9.148;2022-12-29T11:33:38;2.00;;;1.40;;
1839;SDS011;920;48.944;9.148;2022-12-29T11:36:06;2.03;;;1.50;;
1839;SDS011;920;48.944;9.148;2022-12-29T11:38:35;2.67;;;1.30;;
1839;SDS011;920;48.944;9.148;2022-12-29T11:41:02;1.90;;;1.20;;
1839;SDS011;920;48.944;9.148;2022-12-29T11:43:34;3.13;;;2.03;;
1839;SDS011;920;48.944;9.148;2022-12-29T11:46:04;3.00;;;1.70;;
1839;SDS011;920;48.944;9.148;2022-12-29T11:48:32;3.93;;;1.90;;
1839;SDS011;920;48.944;9.148;2022-12-29T11:51:10;2.10;;;1.40;;
1839;SDS011;920;48.944;9.148;2022-12-29T11:53:47;2.53;;;1.50;;
1839;SDS011;920;48.944;9.148;2022-12-29T11:56:17;3.73;;;1.60;;
1839;SDS011;920;48.944;9.148;2022-12-29T11:58:51;3.40;;;1.47;;
1839;SDS011;920;48.944;9.148;2022-12-29T12:01:19;3.30;;;1.60;;
1839;SDS011;920;48.944;9.148;2022-12-29T12:03:51;2.43;;;1.23;;
1839;SDS011;920;48.944;9.148;2022-12-29T12:06:27;3.27;;;1.20;;
1839;SDS011;920;48.944;9.148;2022-12-29T12:08:56;1.77;;;0.90;;
1839;SDS011;920;48.944;9.148;2022-12-29T12:11:28;2.00;;;0.90;;
1839;SDS011;920;48.944;9.148;2022-12-29T12:14:02;4.87;;;1.10;;
1839;SDS011;920;48.944;9.148;2022-12-29T12:16:40;4.60;;;0.90;;
1839;SDS011;920;48.944;9.148;2022-12-29T12:19:10;1.80;;;0.90;;
1839;SDS011;920;48.944;9.148;2022-12-29T12:21:43;1.80;;;0.97;;
1839;SDS011;920;48.944;9.148;2022-12-29T12:27:11;2.00;;;0.83;;
1839;SDS011;920;48.944;9.148;2022-12-29T12:29:43;1.93;;;0.70;;
1839;SDS011;920;48.944;9.148;2022-12-29T12:32:19;2.70;;;0.80;;
1839;SDS011;920;48.944;9.148;2022-12-29T12:34:48;1.80;;;0.90;;
1839;SDS011;920;48.944;9.148;2022-12-29T12:37:33;1.50;;;0.90;;
1839;SDS011;920;48.944;9.148;2022-12-29T12:40:27;1.97;;;0.90;;
1839;SDS011;920;48.944;9.148;2022-12-29T12:43:18;2.27;;;1.00;;
1839;SDS011;920;48.944;9.148;2022-12-29T12:46:06;3.10;;;1.47;;
1839;SDS011;920;48.944;9.148;2022-12-29T12:48:48;2.20;;;1.00;;
1839;SDS011;920;48.944;9.148;2022-12-29T12:51:25;1.93;;;1.10;;
1839;SDS011;920;48.944;9.148;2022-12-29T12:54:11;2.10;;;1.13;;
1839;SDS011;920;48.944;9.148;2022-12-29T12:56:53;1.70;;;1.20;;
1839;SDS011;920;48.944;9.148;2022-12-29T12:59:32;2.00;;;1.47;;
1839;SDS011;920;48.944;9.148;2022-12-29T13:02:09;2.13;;;1.43;;
1839;SDS011;920;48.944;9.148;2022-12-29T13:04:56;2.43;;;1.77;;
1839;SDS011;920;48.944;9.148;2022-12-29T13:07:34;2.73;;;1.77;;
1839;SDS011;920;48.944;9.148;2022-12-29T13:10:19;2.30;;;1.50;;
1839;SDS011;920;48.944;9.148;2022-12-29T13:13:03;3.70;;;1.87;;
1839;SDS011;920;48.944;9.148;2022-12-29T13:15:41;2.17;;;1.47;;
1839;SDS011;920;48.944;9.148;2022-12-29T13:18:18;3.00;;;1.73;;
1839;SDS011;920;48.944;9.148;2022-12-29T13:20:49;2.20;;;1.40;;
1839;SDS011;920;48.944;9.148;2022-12-29T13:23:23;2.30;;;1.40;;
1839;SDS011;920;48.944;9.148;2022-12-29T13:25:59;2.87;;;2.10;;
1839;SDS011;920;48.944;9.148;2022-12-29T13:28:35;3.70;;;1.53;;
1839;SDS011;920;48.944;9.148;2022-12-29T13:31:15;1.93;;;1.30;;
1839;SDS011;920;48.944;9.148;2022-12-29T13:33:46;2.20;;;1.70;;
1839;SDS011;920;48.944;9.148;2022-12-29T13:36:19;2.70;;;1.43;;
1839;SDS011;920;48.944;9.148;2022-12-29T13:39:01;3.80;;;2.30;;
1839;SDS011;920;48.944;9.148;2022-12-29T13:41:37;2.70;;;1.90;;
1839;SDS011;920;48.944;9.148;2022-12-29T13:44:07;4.80;;;2.30;;
1839;SDS011;920;48.944;9.148;2022-12-29T13:46:42;6.30;;;4.20;;
1839;SDS011;920;48.944;9.148;2022-12-29T13:49:11;6.00;;;3.13;;
1839;SDS011;920;48.944;9.148;2022-12-29T13:51:43;6.83;;;2.70;;
1839;SDS011;920;48.944;9.148;2022-12-29T13:54:17;3.43;;;2.20;;
1839;SDS011;920;48.944;9.148;2022-12-29T13:56:52;7.13;;;4.00;;
1839;SDS011;920;48.944;9.148;2022-12-29T13:59:30;4.10;;;3.10;;
1839;SDS011;920;48.944;9.148;2022-12-29T14:02:07;4.03;;;2.23;;
1839;SDS011;920;48.944;9.148;2022-12-29T14:04:56;4.83;;;2.67;;
1839;SDS011;920;48.944;9.148;2022-12-29T14:07:27;3.53;;;2.10;;
1839;SDS011;920;48.944;9.148;2022-12-29T14:09:55;3.20;;;2.70;;
1839;SDS011;920;48.944;9.148;2022-12-29T14:12:29;3.43;;;2.70;;
1839;SDS011;920;48.944;9.148;2022-12-29T14:15:06;2.90;;;2.00;;
1839;SDS011;920;48.944;9.148;2022-12-29T14:18:01;3.60;;;1.90;;
1839;SDS011;920;48.944;9.148;2022-12-29T14:20:31;3.07;;;2.10;;
1839;SDS011;920;48.944;9.148;2022-12-29T14:22:59;2.67;;;2.00;;
1839;SDS011;920;48.944;9.148;2022-12-29T14:28:30;3.30;;;2.10;;
1839;SDS011;920;48.944;9.148;2022-12-29T14:31:00;3.27;;;2.30;;
1839;SDS011;920;48.944;9.148;2022-12-29T14:33:28;2.50;;;1.77;;
1839;SDS011;920;48.944;9.148;2022-12-29T14:35:56;4.50;;;2.20;;
1839;SDS011;920;48.944;9.148;2022-12-29T14:38:27;2.37;;;1.70;;
1839;SDS011;920;48.944;9.148;2022-12-29T14:41:16;2.83;;;2.27;;
1839;SDS011;920;48.944;9.148;2022-12-29T14:43:55;3.17;;;1.90;;
1839;SDS011;920;48.944;9.148;2022-12-29T14:46:49;2.80;;;1.90;;
1839;SDS011;920;48.944;9.148;2022-12-29T14:49:25;3.30;;;2.00;;
1839;SDS011;920;48.944;9.148;2022-12-29T14:52:03;4.07;;;2.40;;
1839;SDS011;920;48.944;9.148;2022-12-29T14:54:43;3.90;;;2.43;;
1839;SDS011;920;48.944;9.148;2022-12-29T14:57:22;3.93;;;2.20;;
1839;SDS011;920;48.944;9.148;2022-12-29T15:00:12;3.83;;;1.90;;
1839;SDS011;920;48.944;9.148;2022-12-29T15:03:02;3.90;;;1.73;;
1839;SDS011;920;48.944;9.148;2022-12-29T15:05:42;2.73;;;1.60;;
1839;SDS011;920;48.944;9.148;2022-12-29T15:08:16;3.77;;;2.03;;
1839;SDS011;920;48.944;9.148;2022-12-29T15:10:45;3.10;;;1.57;;
1839;SDS011;920;48.944;9.148;2022-12-29T15:13:16;3.90;;;1.70;;
1839;SDS011;920;48.944;9.148;2022-12-29T15:15:54;3.60;;;2.53;;
1839;SDS011;920;48.944;9.148;2022-12-29T15:18:25;4.97;;;3.57;;
1839;SDS011;920;48.944;9.148;2022-12-29T15:20:55;8.50;;;5.70;;
1839;SDS011;920;48.944;9.148;2022-12-29T15:23:29;15.60;;;10.20;;
1839;SDS011;920;48.944;9.148;2022-12-29T15:26:03;4.73;;;2.90;;
1839;SDS011;920;48.944;9.148;2022-12-29T15:28:36;3.40;;;2.37;;
1839;SDS011;920;48.944;9.148;2022-12-29T15:31:06;3.37;;;1.73;;
1839;SDS011;920;48.944;9.148;2022-12-29T15:33:41;2.50;;;1.50;;
1839;SDS011;920;48.944;9.148;2022-12-29T15:36:12;3.63;;;1.30;;
1839;SDS011;920;48.944;9.148;2022-12-29T15:38:41;2.40;;;1.10;;
1839;SDS011;920;48.944;9.148;2022-12-29T15:41:15;1.70;;;0.87;;
1839;SDS011;920;48.944;9.148;2022-12-29T15:44:20;1.50;;;0.90;;
1839;SDS011;920;48.944;9.148;2022-12-29T15:46:52;1.60;;;0.90;;
1839;SDS011;920;48.944;9.148;2022-12-29T15:49:18;2.07;;;1.00;;
1839;SDS011;920;48.944;9.148;2022-12-29T15:51:49;1.73;;;1.07;;
1839;SDS011;920;48.944;9.148;2022-12-29T15:54:20;2.30;;;0.97;;
1839;SDS011;920;48.944;9.148;2022-12-29T15:56:48;1.90;;;0.93;;
1839;SDS011;920;48.944;9.148;2022-12-29T15:59:26;1.77;;;0.80;;
1839;SDS011;920;48.944;9.148;2022-12-29T16:01:56;1.57;;;0.70;;
1839;SDS011;920;48.944;9.148;2022-12-29T16:04:24;1.67;;;0.90;;
1839;SDS011;920;48.944;9.148;2022-12-29T16:06:56;3.80;;;1.00;;
1839;SDS011;920;48.944;9.148;2022-12-29T16:09:31;1.30;;;0.80;;
1839;SDS011;920;48.944;9.148;2022-12-29T16:12:02;2.37;;;1.07;;